Time;durP1;ratioP1;P1;durP2;ratioP2;P2;SDS_P1;SDS_P2;PMS_P1;PMS_P2;Temp;Humidity;BMP_temperature;BMP_pressure;BME280_temperature;BME280_humidity;BME280_pressure;Samples;Min_cycle;Max_cycle;Signal;HPM_P1;HPM_P2
2022/05/10 00:01:59;;;;;;;10.30;9.23;;;;;;;13.07;100.00;100623.53;5055233;28;20361;-64
2022/05/10 00:04:24;;;;;;;10.40;8.67;;;;;;;13.01;100.00;100618.69;5033497;28;20186;-63
2022/05/10 00:06:50;;;;;;;13.33;11.97;;;;;;;13.02;100.00;100618.63;5049296;28;20640;-63
2022/05/10 00:09:27;;;;;;;10.43;9.00;;;;;;;12.91;100.00;100615.81;5034612;28;20629;-63
2022/05/10 00:11:53;;;;;;;14.40;12.87;;;;;;;12.87;100.00;100616.91;5057761;28;20240;-62
2022/05/10 00:14:18;;;;;;;16.10;13.20;;;;;;;12.84;100.00;100611.94;5048983;28;20595;-63
2022/05/10 00:16:44;;;;;;;10.87;9.77;;;;;;;12.85;100.00;100608.41;5052017;28;20221;-63
2022/05/10 00:19:13;;;;;;;9.70;8.80;;;;;;;12.83;100.00;100608.50;5053776;28;20185;-63
2022/05/10 00:21:39;;;;;;;9.17;7.83;;;;;;;12.80;100.00;100606.09;5042165;28;20229;-63
2022/05/10 00:24:04;;;;;;;16.07;13.53;;;;;;;12.81;100.00;100607.75;5053859;28;20254;-64
2022/05/10 00:26:29;;;;;;;16.00;13.30;;;;;;;12.77;100.00;100603.69;5052121;28;20178;-64
2022/05/10 00:28:54;;;;;;;11.63;8.90;;;;;;;12.80;100.00;100600.09;5053426;28;20185;-64
2022/05/10 00:31:20;;;;;;;10.40;9.33;;;;;;;12.76;100.00;100604.59;5053651;28;20315;-64
2022/05/10 00:33:46;;;;;;;14.33;9.93;;;;;;;12.68;100.00;100601.63;5069092;28;20166;-63
2022/05/10 00:36:13;;;;;;;13.03;8.90;;;;;;;12.63;100.00;100599.28;5053167;28;20180;-64
2022/05/10 00:38:40;;;;;;;9.93;8.90;;;;;;;12.64;100.00;100603.53;5052467;28;20572;-63
2022/05/10 00:41:20;;;;;;;11.07;9.70;;;;;;;12.57;100.00;100604.78;5051029;28;20232;-63
2022/05/10 00:43:51;;;;;;;13.00;9.63;;;;;;;12.59;100.00;100608.13;5052425;28;20197;-63
2022/05/10 00:46:24;;;;;;;13.87;10.07;;;;;;;12.53;100.00;100601.53;5052042;28;20173;-62
2022/05/10 00:49:02;;;;;;;11.53;10.27;;;;;;;12.48;100.00;100595.78;5069188;28;20177;-63
2022/05/10 00:51:49;;;;;;;11.43;10.17;;;;;;;12.39;100.00;100591.13;5044369;28;20232;-64
2022/05/10 00:54:26;;;;;;;10.83;8.77;;;;;;;12.40;100.00;100601.38;5032910;28;20679;-63
2022/05/10 00:56:56;;;;;;;10.00;8.77;;;;;;;12.34;100.00;100591.41;5033182;28;20543;-63
2022/05/10 00:59:28;;;;;;;10.53;9.17;;;;;;;12.30;100.00;100602.78;5033867;28;20247;-64
2022/05/10 01:02:01;;;;;;;9.13;8.23;;;;;;;12.24;100.00;100593.63;5056913;28;20287;-63
2022/05/10 01:04:32;;;;;;;12.83;9.43;;;;;;;12.20;100.00;100593.88;5034148;28;20346;-63
2022/05/10 01:07:05;;;;;;;9.93;8.90;;;;;;;12.13;100.00;100587.38;5048331;28;20268;-63
2022/05/10 01:09:54;;;;;;;11.33;10.23;;;;;;;12.02;100.00;100588.78;5033219;28;20178;-63
2022/05/10 01:12:35;;;;;;;13.77;9.17;;;;;;;12.05;100.00;100580.06;5055370;28;20683;-63
2022/05/10 01:15:12;;;;;;;14.57;11.27;;;;;;;12.08;100.00;100583.31;5048851;28;20261;-63
2022/05/10 01:17:38;;;;;;;12.17;9.97;;;;;;;12.11;100.00;100577.16;5038437;28;20629;-63
2022/05/10 01:20:06;;;;;;;15.97;14.23;;;;;;;12.01;100.00;100570.81;5043196;28;20259;-64
2022/05/10 01:22:50;;;;;;;11.07;9.87;;;;;;;11.82;100.00;100574.34;5067373;28;20205;-63
2022/05/10 01:25:34;;;;;;;13.73;11.83;;;;;;;11.87;100.00;100580.09;5053044;28;20166;-63
2022/05/10 01:28:15;;;;;;;11.40;9.73;;;;;;;11.90;100.00;100566.19;5052269;28;20188;-63
2022/05/10 01:30:40;;;;;;;11.10;9.93;;;;;;;11.94;100.00;100570.25;5041104;28;20220;-63
2022/05/10 01:33:29;;;;;;;11.10;10.00;;;;;;;11.86;100.00;100573.25;5040190;28;20184;-63
2022/05/10 01:36:14;;;;;;;11.17;9.90;;;;;;;11.82;100.00;100574.34;5052656;28;20162;-63
2022/05/10 01:38:46;;;;;;;12.63;10.67;;;;;;;11.85;100.00;100563.84;5051845;28;20216;-63
2022/05/10 01:41:30;;;;;;;9.73;8.80;;;;;;;11.78;100.00;100559.94;5050499;28;20228;-63
2022/05/10 01:44:18;;;;;;;9.30;8.40;;;;;;;11.83;100.00;100557.94;5067975;28;20216;-63
2022/05/10 01:46:46;;;;;;;13.63;11.00;;;;;;;11.87;100.00;100562.03;5052253;28;20169;-63
2022/05/10 01:49:26;;;;;;;10.70;9.60;;;;;;;11.74;100.00;100558.44;5044904;28;20241;-64
2022/05/10 01:52:30;;;;;;;10.37;9.37;;;;;;;11.65;100.00;100558.88;5051063;28;20231;-63
2022/05/10 01:55:04;;;;;;;11.03;9.40;;;;;;;11.68;100.00;100559.56;5030816;28;20185;-63
2022/05/10 01:57:32;;;;;;;13.33;11.97;;;;;;;11.68;100.00;100554.41;5031418;28;20174;-63
2022/05/10 02:00:06;;;;;;;12.87;9.80;;;;;;;11.64;100.00;100558.06;5032060;28;20186;-62
2022/05/10 02:02:33;;;;;;;9.93;9.03;;;;;;;11.64;100.00;100552.91;5020940;28;20336;-64
2022/05/10 02:05:03;;;;;;;11.90;10.20;;;;;;;11.50;100.00;100556.22;5031122;28;20534;-63
2022/05/10 02:07:30;;;;;;;11.00;9.80;;;;;;;11.36;100.00;100551.78;5031713;28;20605;-63
2022/05/10 02:10:02;;;;;;;12.00;10.63;;;;;;;11.34;100.00;100555.31;5047378;28;20227;-62
2022/05/10 02:12:36;;;;;;;11.00;9.83;;;;;;;11.23;100.00;100558.44;5020688;28;20301;-62
2022/05/10 02:15:08;;;;;;;11.07;9.70;;;;;;;11.31;100.00;100551.13;5032117;28;20184;-62
2022/05/10 02:18:02;;;;;;;11.13;9.93;;;;;;;11.34;100.00;100553.56;5036627;28;20270;-63
2022/05/10 02:20:37;;;;;;;12.23;10.87;;;;;;;11.26;100.00;100553.97;5030350;28;20227;-63
2022/05/10 02:23:12;;;;;;;12.70;10.50;;;;;;;11.25;100.00;100552.31;5074522;28;20322;-62
2022/05/10 02:25:51;;;;;;;11.37;10.27;;;;;;;11.36;100.00;100544.03;5050660;28;20184;-64
2022/05/10 02:28:36;;;;;;;10.97;9.87;;;;;;;11.35;100.00;100544.09;5051693;28;20191;-64
2022/05/10 02:31:08;;;;;;;11.87;10.67;;;;;;;11.36;100.00;100541.47;5039822;28;20229;-63
2022/05/10 02:33:34;;;;;;;12.33;11.13;;;;;;;11.34;100.00;100543.28;5042901;28;20173;-64
2022/05/10 02:36:00;;;;;;;11.60;10.50;;;;;;;11.34;100.00;100545.84;5051640;28;20201;-64
2022/05/10 02:38:32;;;;;;;11.77;10.67;;;;;;;11.33;100.00;100540.78;5051902;28;20629;-63
2022/05/10 02:41:00;;;;;;;13.00;11.07;;;;;;;11.35;100.00;100544.09;5048916;28;20240;-64
2022/05/10 02:43:34;;;;;;;11.67;10.47;;;;;;;11.33;100.00;100545.94;5067104;28;20230;-63
2022/05/10 02:46:00;;;;;;;10.77;9.67;;;;;;;11.30;100.00;100550.31;5038544;28;20181;-63
2022/05/10 02:48:35;;;;;;;10.97;9.70;;;;;;;11.28;100.00;100543.59;5022881;28;20190;-63
2022/05/10 02:51:01;;;;;;;9.83;8.97;;;;;;;11.29;100.00;100542.69;5037228;28;20217;-63
2022/05/10 02:53:27;;;;;;;9.33;8.53;;;;;;;11.14;100.00;100537.38;5062446;28;20209;-64
2022/05/10 02:55:56;;;;;;;11.40;9.17;;;;;;;11.08;100.00;100547.97;5071167;28;20197;-62
2022/05/10 02:58:44;;;;;;;10.60;9.50;;;;;;;11.03;100.00;100549.97;5055142;28;20173;-63
2022/05/10 03:01:25;;;;;;;9.50;8.60;;;;;;;10.94;100.00;100543.53;5053507;28;20230;-63
2022/05/10 03:03:51;;;;;;;9.63;8.83;;;;;;;10.85;100.00;100543.94;5060254;28;20529;-62
2022/05/10 03:06:19;;;;;;;10.63;9.20;;;;;;;10.87;100.00;100541.34;5053826;28;20174;-63
2022/05/10 03:08:46;;;;;;;8.90;8.10;;;;;;;10.87;100.00;100537.00;5055489;28;20189;-64
2022/05/10 03:11:12;;;;;;;9.33;8.50;;;;;;;10.76;100.00;100534.94;5056687;28;20751;-62
2022/05/10 03:13:37;;;;;;;10.00;8.90;;;;;;;10.68;100.00;100537.06;5060920;28;20276;-63
2022/05/10 03:16:03;;;;;;;10.93;9.57;;;;;;;10.69;100.00;100536.13;5062637;28;20595;-64
2022/05/10 03:18:28;;;;;;;10.90;9.90;;;;;;;10.72;100.00;100537.75;5052506;28;20182;-63
2022/05/10 03:20:54;;;;;;;11.30;10.10;;;;;;;10.66;100.00;100534.56;5051991;28;20232;-63
2022/05/10 03:23:19;;;;;;;11.07;9.53;;;;;;;10.70;100.00;100529.28;5070052;28;20659;-63
2022/05/10 03:25:45;;;;;;;11.57;10.47;;;;;;;10.68;100.00;100525.94;5055214;28;20173;-62
2022/05/10 03:28:10;;;;;;;10.93;9.93;;;;;;;10.67;100.00;100525.09;5054877;28;20284;-62
2022/05/10 03:30:35;;;;;;;12.53;9.60;;;;;;;10.69;100.00;100523.28;5020362;28;20233;-63
2022/05/10 03:33:01;;;;;;;10.27;9.27;;;;;;;10.72;100.00;100530.03;5034012;28;20269;-63
2022/05/10 03:35:27;;;;;;;11.23;10.13;;;;;;;10.72;100.00;100530.84;5035154;28;20225;-63
2022/05/10 03:37:53;;;;;;;10.97;9.80;;;;;;;10.73;100.00;100527.38;5034552;28;20265;-62
2022/05/10 03:40:18;;;;;;;12.00;10.73;;;;;;;10.74;100.00;100531.63;5027310;28;20305;-62
2022/05/10 03:42:46;;;;;;;11.00;9.90;;;;;;;10.77;100.00;100528.91;5047245;28;20248;-62
2022/05/10 03:45:12;;;;;;;11.67;10.57;;;;;;;10.85;100.00;100533.66;5026169;28;20186;-62
2022/05/10 03:47:38;;;;;;;11.30;9.60;;;;;;;10.81;100.00;100532.16;5014300;28;20178;-62
2022/05/10 03:50:04;;;;;;;10.97;9.90;;;;;;;10.84;100.00;100537.16;5006360;28;20186;-63
2022/05/10 03:52:30;;;;;;;10.23;9.33;;;;;;;10.87;100.00;100531.84;5029789;28;20684;-62
2022/05/10 03:54:55;;;;;;;9.70;8.80;;;;;;;10.64;100.00;100531.22;5015200;28;20211;-63
2022/05/10 03:57:20;;;;;;;12.43;10.47;;;;;;;10.54;100.00;100524.84;5029811;28;20174;-63
2022/05/10 03:59:46;;;;;;;9.67;8.77;;;;;;;10.60;100.00;100521.16;5015497;28;20182;-63
2022/05/10 04:02:13;;;;;;;13.63;10.17;;;;;;;10.57;100.00;100523.91;5019427;28;20373;-62
2022/05/10 04:04:39;;;;;;;10.73;9.83;;;;;;;10.66;100.00;100519.13;5021169;28;20258;-62
2022/05/10 04:07:05;;;;;;;11.03;9.97;;;;;;;10.70;100.00;100521.56;5014166;28;20255;-63
2022/05/10 04:09:31;;;;;;;11.33;9.17;;;;;;;10.73;100.00;100521.38;5015034;28;20214;-62
2022/05/10 04:11:57;;;;;;;11.10;10.00;;;;;;;10.84;100.00;100520.88;5019232;28;20285;-62
2022/05/10 04:14:22;;;;;;;11.80;10.70;;;;;;;11.07;100.00;100515.41;5030296;28;20182;-63
2022/05/10 04:16:48;;;;;;;10.80;9.70;;;;;;;11.25;100.00;100515.41;5032485;28;20671;-62
2022/05/10 04:19:13;;;;;;;11.17;9.50;;;;;;;11.34;100.00;100522.66;5034420;28;20255;-62
2022/05/10 04:21:38;;;;;;;14.03;9.40;;;;;;;11.49;100.00;100522.81;5036482;28;20229;-63
2022/05/10 04:24:04;;;;;;;10.00;9.10;;;;;;;11.62;100.00;100521.22;5037586;28;20656;-63
2022/05/10 04:26:29;;;;;;;10.27;9.37;;;;;;;11.49;100.00;100518.47;5033964;28;20178;-63
2022/05/10 04:28:54;;;;;;;11.87;8.90;;;;;;;11.45;100.00;100519.56;5034416;28;20185;-62
2022/05/10 04:31:20;;;;;;;10.37;9.33;;;;;;;11.65;100.00;100521.09;5034427;28;20675;-62
2022/05/10 04:33:45;;;;;;;10.97;9.83;;;;;;;11.83;100.00;100519.28;5039342;28;20181;-62
2022/05/10 04:36:11;;;;;;;11.03;9.93;;;;;;;11.97;100.00;100522.91;5033610;28;20185;-62
2022/05/10 04:38:36;;;;;;;10.10;9.20;;;;;;;12.13;100.00;100531.50;5034598;28;20177;-63
2022/05/10 04:43:46;;;;;;;10.17;9.17;;;;;;;12.34;100.00;100520.91;5025788;28;20217;-63
2022/05/10 04:46:11;;;;;;;15.90;9.53;;;;;;;12.46;100.00;100525.38;5033765;28;20175;-63
2022/05/10 04:48:37;;;;;;;9.83;8.93;;;;;;;12.66;100.00;100526.81;5034280;28;20709;-63
2022/05/10 04:51:04;;;;;;;11.40;9.83;;;;;;;12.89;100.00;100529.88;5031379;28;20229;-63
2022/05/10 04:53:29;;;;;;;14.10;10.83;;;;;;;13.03;100.00;100534.22;5041898;28;20185;-63
2022/05/10 04:55:54;;;;;;;10.20;9.20;;;;;;;13.09;100.00;100533.88;5034336;28;20178;-63
2022/05/10 04:58:20;;;;;;;14.47;9.13;;;;;;;13.14;99.10;100537.03;5033714;28;20177;-64
2022/05/10 05:00:45;;;;;;;15.53;10.13;;;;;;;13.23;96.89;100533.91;5029581;28;20228;-64
2022/05/10 05:03:11;;;;;;;12.13;9.17;;;;;;;13.19;95.18;100541.94;5032502;28;20269;-64
2022/05/10 05:05:36;;;;;;;11.40;9.93;;;;;;;13.44;95.01;100537.94;5033497;28;20548;-63
2022/05/10 05:08:01;;;;;;;8.67;7.83;;;;;;;13.55;96.24;100543.28;5033681;28;20220;-63
2022/05/10 05:10:28;;;;;;;8.03;7.17;;;;;;;13.44;96.85;100538.75;5026237;28;20282;-63
2022/05/10 05:12:53;;;;;;;8.53;7.73;;;;;;;13.70;96.22;100537.16;5045784;28;20537;-64
2022/05/10 05:15:18;;;;;;;9.93;8.93;;;;;;;13.96;94.22;100533.94;5032494;28;20241;-63
2022/05/10 05:17:44;;;;;;;14.97;9.60;;;;;;;14.00;92.63;100540.56;5032527;28;20269;-63
2022/05/10 05:20:11;;;;;;;10.10;8.90;;;;;;;14.06;90.07;100541.97;5023904;28;20189;-63
2022/05/10 05:22:36;;;;;;;14.03;10.00;;;;;;;14.27;88.46;100540.59;5048621;28;20186;-63
2022/05/10 05:25:03;;;;;;;12.63;9.60;;;;;;;14.55;85.98;100541.44;5031956;28;20185;-63
2022/05/10 05:27:28;;;;;;;11.03;10.03;;;;;;;14.88;83.75;100544.56;5032381;28;20241;-64
2022/05/10 05:29:55;;;;;;;10.87;9.47;;;;;;;14.96;83.02;100547.50;5033055;28;20548;-62
2022/05/10 05:32:24;;;;;;;10.30;9.20;;;;;;;14.76;83.40;100536.66;5021052;28;20229;-63
2022/05/10 05:34:49;;;;;;;10.07;9.10;;;;;;;15.09;82.25;100540.53;5033103;28;20209;-64
2022/05/10 05:37:33;;;;;;;11.63;8.47;;;;;;;15.09;81.87;100540.53;5032364;28;20548;-63
2022/05/10 05:39:59;;;;;;;9.23;8.07;;;;;;;15.48;79.08;100536.19;5026124;28;20641;-63
2022/05/10 05:42:25;;;;;;;9.13;8.33;;;;;;;15.47;78.01;100538.91;5018435;28;20316;-63
2022/05/10 05:44:50;;;;;;;8.97;8.07;;;;;;;15.70;77.10;100536.50;5013121;28;20262;-64
2022/05/10 05:47:16;;;;;;;11.03;8.67;;;;;;;16.06;76.75;100538.31;5012568;28;20183;-62
2022/05/10 05:49:41;;;;;;;9.70;8.70;;;;;;;16.12;75.97;100544.81;5012955;28;20171;-62
2022/05/10 05:52:07;;;;;;;9.37;8.43;;;;;;;16.40;74.16;100538.50;5018275;28;20696;-63
2022/05/10 05:54:32;;;;;;;11.80;9.33;;;;;;;16.44;72.77;100539.91;5012830;28;20175;-63
2022/05/10 05:57:01;;;;;;;9.13;7.83;;;;;;;16.68;73.87;100540.84;5012383;28;20533;-62
2022/05/10 05:59:27;;;;;;;9.00;8.07;;;;;;;16.96;74.82;100544.06;5027802;28;20186;-63
2022/05/10 06:01:52;;;;;;;10.60;8.60;;;;;;;16.99;74.84;100549.00;5021011;28;20253;-62
2022/05/10 06:04:18;;;;;;;9.83;8.40;;;;;;;17.14;74.97;100542.69;5013740;28;20253;-64
2022/05/10 06:06:43;;;;;;;9.90;8.77;;;;;;;17.21;72.66;100543.84;5011858;28;20191;-62
2022/05/10 06:09:08;;;;;;;9.00;7.97;;;;;;;17.29;72.62;100542.44;5011961;28;20183;-62
2022/05/10 06:11:33;;;;;;;9.53;7.80;;;;;;;17.52;72.25;100532.91;5013337;28;20222;-62
2022/05/10 06:14:00;;;;;;;8.20;7.40;;;;;;;17.73;70.15;100535.59;5021121;28;20191;-63
2022/05/10 06:16:25;;;;;;;9.50;7.87;;;;;;;17.35;71.43;100541.97;5011247;28;20257;-63
2022/05/10 06:18:51;;;;;;;9.50;8.40;;;;;;;17.25;70.48;100542.69;5016974;28;20198;-63
2022/05/10 06:21:16;;;;;;;10.23;8.17;;;;;;;17.65;69.40;100540.56;5010986;28;20707;-64
2022/05/10 06:23:41;;;;;;;9.27;8.00;;;;;;;17.85;66.60;100544.22;5020074;28;20555;-64
2022/05/10 06:26:07;;;;;;;9.77;8.63;;;;;;;17.87;68.07;100550.97;5016631;28;20240;-64
2022/05/10 06:28:33;;;;;;;8.90;8.00;;;;;;;17.88;67.33;100534.38;5013674;28;20532;-62
2022/05/10 06:30:58;;;;;;;10.43;7.63;;;;;;;18.01;64.31;100536.06;5010431;28;20245;-62
2022/05/10 06:33:23;;;;;;;8.13;7.40;;;;;;;18.11;64.34;100539.59;5010802;28;20178;-62
2022/05/10 06:35:49;;;;;;;8.43;7.23;;;;;;;18.87;60.59;100541.31;5016376;28;20193;-63
2022/05/10 06:38:19;;;;;;;7.87;7.27;;;;;;;19.31;57.72;100547.25;5035440;28;20213;-63
2022/05/10 06:40:45;;;;;;;8.87;7.80;;;;;;;18.93;58.66;100542.59;5011669;28;20245;-65
2022/05/10 06:43:11;;;;;;;11.60;7.30;;;;;;;18.98;60.05;100532.66;5017428;28;20745;-64
2022/05/10 06:45:37;;;;;;;8.83;7.20;;;;;;;18.81;59.75;100537.44;4994213;28;20270;-60
2022/05/10 06:48:03;;;;;;;10.33;7.37;;;;;;;18.97;59.06;100533.59;5012260;28;20193;-60
2022/05/10 06:50:30;;;;;;;8.10;7.30;;;;;;;19.46;56.43;100536.44;5006508;28;20226;-60
2022/05/10 06:53:00;;;;;;;10.50;7.40;;;;;;;20.04;55.63;100532.41;5020618;28;20183;-62
2022/05/10 06:55:26;;;;;;;7.63;6.93;;;;;;;20.14;54.61;100534.09;5012644;28;20207;-62
2022/05/10 06:57:52;;;;;;;8.10;7.13;;;;;;;20.50;52.98;100530.91;5030762;28;20190;-60
2022/05/10 07:00:18;;;;;;;9.93;7.37;;;;;;;20.80;52.20;100527.38;5013704;28;20189;-59
2022/05/10 07:02:44;;;;;;;6.80;6.07;;;;;;;21.74;49.99;100536.16;5045249;28;20202;-60
2022/05/10 07:05:12;;;;;;;10.77;6.80;;;;;;;22.85;47.16;100534.25;5046961;28;20649;-60
2022/05/10 07:07:38;;;;;;;11.67;6.53;;;;;;;23.72;43.86;100528.97;5031772;28;20192;-61
2022/05/10 07:10:08;;;;;;;8.50;7.50;;;;;;;23.81;43.45;100537.69;5022310;28;20182;-59
2022/05/10 07:12:37;;;;;;;6.75;6.25;;;;;;;24.82;41.50;100535.88;5046200;28;20210;-60
2022/05/10 07:15:04;;;;;;;8.13;6.20;;;;;;;25.19;40.73;100538.91;5025789;28;20182;-61
2022/05/10 07:17:30;;;;;;;7.78;6.80;;;;;;;24.66;41.64;100536.72;5026732;28;20664;-62
2022/05/10 07:19:55;;;;;;;10.10;6.22;;;;;;;25.10;39.26;100536.28;5025435;28;20225;-60
2022/05/10 07:22:20;;;;;;;7.30;6.15;;;;;;;24.15;41.05;100528.91;5020912;28;20233;-61
2022/05/10 07:24:45;;;;;;;6.85;6.28;;;;;;;24.77;40.56;100530.28;5032156;28;20178;-61
2022/05/10 07:27:11;;;;;;;7.68;5.95;;;;;;;24.27;41.16;100530.25;5031152;28;20513;-61
2022/05/10 07:29:36;;;;;;;6.45;5.85;;;;;;;25.65;39.85;100539.13;5031659;28;20224;-61
2022/05/10 07:32:02;;;;;;;6.72;5.97;;;;;;;26.74;37.49;100538.22;5003472;28;20228;-62
2022/05/10 07:34:27;;;;;;;6.35;5.85;;;;;;;27.84;35.45;100534.00;5026303;28;20193;-61
2022/05/10 07:36:52;;;;;;;7.72;5.65;;;;;;;28.90;33.75;100540.47;5030936;28;20244;-63
2022/05/10 07:39:18;;;;;;;10.93;6.28;;;;;;;28.70;32.44;100537.66;5034511;28;20182;-61
2022/05/10 07:41:44;;;;;;;8.10;5.38;;;;;;;28.75;33.49;100543.22;5053858;28;20582;-61
2022/05/10 07:44:10;;;;;;;6.05;5.53;;;;;;;29.41;32.36;100547.28;5050307;28;20270;-62
2022/05/10 07:46:36;;;;;;;6.10;5.55;;;;;;;29.85;32.09;100541.72;5046343;28;20214;-62
2022/05/10 07:49:02;;;;;;;8.10;5.47;;;;;;;30.38;31.23;100539.13;5040956;28;20693;-63
2022/05/10 07:51:28;;;;;;;7.97;5.70;;;;;;;31.02;29.83;100538.66;5042400;28;20221;-60
2022/05/10 07:53:53;;;;;;;6.10;5.50;;;;;;;31.28;29.75;100531.69;5037789;28;20178;-61
2022/05/10 07:56:19;;;;;;;7.57;5.45;;;;;;;31.08;28.84;100532.56;5025590;28;20633;-61
2022/05/10 07:58:44;;;;;;;6.10;5.60;;;;;;;30.24;30.64;100540.13;5020717;28;20248;-62
2022/05/10 08:01:10;;;;;;;6.50;5.90;;;;;;;28.82;31.96;100537.94;5050091;28;20286;-63
2022/05/10 08:03:35;;;;;;;8.32;5.70;;;;;;;28.92;31.79;100532.31;5042017;28;20256;-61
2022/05/10 08:06:01;;;;;;;5.75;5.22;;;;;;;29.91;30.87;100528.47;5051697;28;20185;-62
2022/05/10 08:08:29;;;;;;;6.35;5.78;;;;;;;28.49;31.40;100527.91;5054357;28;20273;-61
2022/05/10 08:10:55;;;;;;;6.82;6.22;;;;;;;27.96;33.60;100520.28;5049083;28;20270;-61
2022/05/10 08:13:24;;;;;;;7.20;5.78;;;;;;;28.65;32.48;100516.22;5065551;28;20676;-61
2022/05/10 08:15:50;;;;;;;7.47;6.35;;;;;;;29.40;30.74;100521.78;5055237;28;20752;-61
2022/05/10 08:18:17;;;;;;;8.13;6.22;;;;;;;28.83;30.93;100523.72;5054763;28;20170;-60
2022/05/10 08:20:44;;;;;;;9.80;6.10;;;;;;;28.27;32.17;100512.06;5049682;28;20238;-60
2022/05/10 08:23:11;;;;;;;7.32;5.95;;;;;;;27.57;33.45;100516.22;5063964;28;20292;-62
2022/05/10 08:25:37;;;;;;;7.88;7.05;;;;;;;26.56;34.68;100518.25;5053650;28;20189;-62
2022/05/10 08:28:03;;;;;;;8.70;7.13;;;;;;;25.29;37.44;100524.56;5054048;28;20173;-60
2022/05/10 08:30:29;;;;;;;8.10;7.35;;;;;;;24.35;39.63;100518.94;5046258;28;20715;-60
2022/05/10 08:32:54;;;;;;;7.38;6.63;;;;;;;24.83;40.97;100518.28;5059784;28;20210;-59
2022/05/10 08:35:19;;;;;;;10.55;7.75;;;;;;;26.12;37.76;100508.38;5035202;28;20537;-60
2022/05/10 08:37:45;;;;;;;9.63;7.50;;;;;;;26.71;36.85;100517.47;5047358;28;20193;-61
2022/05/10 08:40:36;;;;;;;11.00;6.82;;;;;;;26.66;35.56;100509.25;5041330;28;20657;-59
2022/05/10 08:43:11;;;;;;;8.10;7.40;;;;;;;26.84;36.78;100509.78;4998170;28;20221;-59
2022/05/10 08:45:41;;;;;;;8.70;7.75;;;;;;;26.41;37.51;100506.84;5015893;28;20201;-59
2022/05/10 08:48:07;;;;;;;8.20;7.50;;;;;;;26.30;37.28;100502.81;5012569;28;20215;-59
2022/05/10 08:50:32;;;;;;;8.82;7.72;;;;;;;25.64;39.27;100505.84;5016999;28;20291;-59
2022/05/10 08:52:58;;;;;;;8.80;7.82;;;;;;;26.00;38.25;100500.03;5057784;28;20517;-59
2022/05/10 08:55:28;;;;;;;10.07;8.15;;;;;;;27.27;36.86;100495.09;5036192;28;20181;-60
2022/05/10 08:58:05;;;;;;;12.07;7.50;;;;;;;28.40;35.34;100503.41;5045379;28;20182;-59
2022/05/10 09:00:52;;;;;;;9.00;8.18;;;;;;;28.50;33.44;100490.69;5032753;28;21069;-62
2022/05/10 09:03:45;;;;;;;8.05;7.32;;;;;;;27.97;35.44;100506.06;5032517;28;20205;-62
2022/05/10 09:06:41;;;;;;;9.25;8.02;;;;;;;27.60;35.15;100498.16;5013337;28;20179;-62
2022/05/10 09:09:20;;;;;;;8.00;7.22;;;;;;;28.92;32.95;100493.41;5013576;28;20175;-64
2022/05/10 09:11:53;;;;;;;10.60;7.10;;;;;;;29.34;33.01;100501.38;5033548;28;20736;-63
2022/05/10 09:14:27;;;;;;;7.20;6.50;;;;;;;29.41;31.99;100501.38;5049596;28;20207;-63
2022/05/10 09:16:54;;;;;;;8.90;8.00;;;;;;;30.37;31.34;100488.94;5052625;28;20281;-63
2022/05/10 09:19:27;;;;;;;8.68;7.03;;;;;;;29.41;32.21;100498.75;5052902;28;20950;-62
2022/05/10 09:21:54;;;;;;;14.57;7.32;;;;;;;30.32;31.61;100494.84;5057105;28;20236;-62
2022/05/10 09:24:32;;;;;;;7.35;6.65;;;;;;;31.51;29.97;100485.97;5068489;28;20212;-62
2022/05/10 09:27:05;;;;;;;7.75;6.10;;;;;;;31.38;29.04;100487.69;5051470;28;20228;-62
2022/05/10 09:29:35;;;;;;;6.60;5.90;;;;;;;31.73;29.45;100489.16;5046271;28;20320;-62
2022/05/10 09:35:24;;;;;;;11.27;7.85;;;;;;;28.83;32.92;100490.09;5033095;28;20225;-62
2022/05/10 09:37:56;;;;;;;8.10;7.40;;;;;;;28.06;35.03;100486.47;5032697;28;20170;-63
2022/05/10 09:40:42;;;;;;;15.02;13.43;;;;;;;26.80;36.08;100483.91;5027544;28;20257;-64
2022/05/10 09:43:26;;;;;;;7.95;7.25;;;;;;;26.23;37.41;100481.63;5042471;28;20719;-62
2022/05/10 09:46:15;;;;;;;7.55;6.72;;;;;;;28.40;35.81;100479.59;5032769;28;20174;-62
2022/05/10 09:48:42;;;;;;;8.45;7.10;;;;;;;29.04;33.01;100487.56;5031402;28;20654;-63
2022/05/10 09:51:36;;;;;;;8.50;7.32;;;;;;;30.76;30.61;100476.63;5040014;28;20236;-62
2022/05/10 09:54:09;;;;;;;7.15;6.55;;;;;;;32.13;28.56;100482.72;5040220;28;20239;-62
2022/05/10 09:56:41;;;;;;;9.15;8.35;;;;;;;31.39;29.32;100481.34;5030852;28;20332;-61
2022/05/10 09:59:29;;;;;;;7.25;6.60;;;;;;;32.28;27.43;100467.25;5047628;28;20174;-62
2022/05/10 10:01:58;;;;;;;14.77;13.27;;;;;;;33.17;27.36;100475.94;5039160;28;20290;-62
2022/05/10 10:04:32;;;;;;;9.70;6.75;;;;;;;33.86;26.52;100465.78;5034289;28;20237;-63
2022/05/10 10:07:13;;;;;;;11.70;10.00;;;;;;;33.18;27.11;100467.72;5031996;28;20212;-63
2022/05/10 10:09:42;;;;;;;7.47;6.55;;;;;;;32.93;26.77;100467.84;5032220;28;20181;-63
2022/05/10 10:12:26;;;;;;;8.75;5.60;;;;;;;31.43;28.22;100463.09;5054201;28;20238;-62
2022/05/10 10:14:51;;;;;;;6.72;6.13;;;;;;;31.64;29.31;100461.19;5034621;28;20277;-63
2022/05/10 10:17:28;;;;;;;7.95;7.15;;;;;;;32.16;27.74;100453.84;5034866;28;20657;-59
2022/05/10 10:20:19;;;;;;;11.57;10.13;;;;;;;31.72;28.57;100450.28;5041226;28;20255;-59
2022/05/10 10:22:49;;;;;;;10.20;7.32;;;;;;;32.72;28.59;100453.91;5038740;28;20230;-60
2022/05/10 10:25:25;;;;;;;6.30;5.72;;;;;;;32.61;27.58;100447.47;5035496;28;20316;-61
2022/05/10 10:27:58;;;;;;;6.70;5.97;;;;;;;32.25;27.80;100445.59;5039374;28;20197;-60
2022/05/10 10:30:39;;;;;;;14.07;12.68;;;;;;;32.89;27.69;100435.50;5024258;28;20234;-61
2022/05/10 10:33:27;;;;;;;8.05;7.18;;;;;;;32.97;27.21;100439.69;5042793;28;20307;-62
2022/05/10 10:36:02;;;;;;;13.88;9.77;;;;;;;33.79;26.27;100438.41;5036532;28;20184;-61
2022/05/10 10:38:58;;;;;;;8.18;6.65;;;;;;;33.27;27.41;100445.06;5047707;28;20184;-61
2022/05/10 10:41:46;;;;;;;10.77;9.45;;;;;;;31.03;29.16;100434.84;5069967;28;20572;-61
2022/05/10 10:44:21;;;;;;;6.18;5.57;;;;;;;30.83;31.28;100431.50;5049702;28;20283;-60
2022/05/10 10:46:59;;;;;;;8.10;7.38;;;;;;;30.05;32.13;100414.47;5042020;28;20701;-60
2022/05/10 10:49:34;;;;;;;7.82;7.00;;;;;;;27.33;34.71;100412.50;5050124;28;20204;-61
2022/05/10 10:51:59;;;;;;;7.72;5.25;;;;;;;27.50;35.38;100407.81;5047841;28;20729;-60
2022/05/10 10:54:29;;;;;;;8.65;7.75;;;;;;;26.08;37.30;100407.72;5033295;28;20273;-59
2022/05/10 10:57:19;;;;;;;8.32;7.55;;;;;;;26.55;37.34;100397.88;5031207;28;20170;-60
2022/05/10 11:00:03;;;;;;;8.02;7.07;;;;;;;27.16;36.55;100393.41;5030250;28;20182;-60
2022/05/10 11:02:47;;;;;;;12.50;9.13;;;;;;;26.48;38.02;100390.88;5009860;28;20240;-60
2022/05/10 11:05:42;;;;;;;6.57;5.97;;;;;;;26.59;39.01;100393.06;5031661;28;20186;-60
2022/05/10 11:08:24;;;;;;;10.02;6.43;;;;;;;26.95;39.48;100384.44;5031361;28;20205;-61
2022/05/10 11:10:55;;;;;;;7.30;6.60;;;;;;;27.12;39.02;100382.41;5039264;28;20275;-61
2022/05/10 11:13:46;;;;;;;7.50;5.68;;;;;;;27.32;37.41;100381.81;5051279;28;20213;-62
2022/05/10 11:16:17;;;;;;;7.15;6.50;;;;;;;27.18;38.18;100381.66;5052976;28;20319;-60
2022/05/10 11:19:09;;;;;;;9.40;6.63;;;;;;;27.21;38.56;100376.03;5060689;28;20227;-61
2022/05/10 11:21:58;;;;;;;6.53;5.85;;;;;;;27.43;38.33;100367.31;5016866;28;20221;-61
2022/05/10 11:24:42;;;;;;;9.95;6.35;;;;;;;27.81;37.30;100369.69;5046870;28;20201;-59
2022/05/10 11:27:26;;;;;;;8.57;6.45;;;;;;;27.31;37.62;100359.03;5046278;28;20193;-60
2022/05/10 11:30:00;;;;;;;7.32;6.32;;;;;;;27.35;36.92;100355.00;5055472;28;20174;-59
2022/05/10 11:32:45;;;;;;;6.43;5.90;;;;;;;26.79;38.08;100353.78;5023457;28;20226;-60
2022/05/10 11:35:48;;;;;;;10.27;5.70;;;;;;;26.77;39.19;100350.53;5053631;28;20177;-60
2022/05/10 11:38:45;;;;;;;9.52;5.95;;;;;;;26.26;39.58;100336.22;5035263;28;20260;-60
2022/05/10 11:41:13;;;;;;;6.32;5.43;;;;;;;26.30;40.77;100341.97;5043410;28;20647;-62